createdAt,value
2022-09-03T00:00:12.638Z,15.79
2022-09-03T00:00:49.739Z,15.80
2022-09-03T00:01:25.233Z,15.74
2022-09-03T00:02:02.177Z,15.71
2022-09-03T00:02:52.257Z,15.69
2022-09-03T00:03:37.655Z,15.63
2022-09-03T00:04:25.736Z,15.60
2022-09-03T00:05:10.061Z,15.59
2022-09-03T00:05:45.736Z,15.54
2022-09-03T00:06:21.738Z,15.53
2022-09-03T00:07:01.726Z,15.51
2022-09-03T00:07:45.435Z,15.49
2022-09-03T00:08:32.982Z,15.44
2022-09-03T00:09:28.918Z,15.45
2022-09-03T00:10:05.350Z,15.43
2022-09-03T00:10:44.689Z,15.43
2022-09-03T00:11:23.003Z,15.41
2022-09-03T00:12:17.982Z,15.41
2022-09-03T00:12:51.470Z,15.39
2022-09-03T00:13:34.011Z,15.38
2022-09-03T00:14:08.018Z,15.37
2022-09-03T00:14:51.905Z,15.29
2022-09-03T00:15:24.122Z,15.30
2022-09-03T00:15:57.513Z,15.33
2022-09-03T00:16:34.410Z,15.33
2022-09-03T00:17:10.519Z,15.33
2022-09-03T00:17:49.619Z,15.31
2022-09-03T00:18:23.906Z,15.31
2022-09-03T00:19:00.594Z,15.28
2022-09-03T00:19:35.295Z,15.24
2022-09-03T00:20:18.908Z,15.21
2022-09-03T00:21:08.376Z,15.18
2022-09-03T00:21:52.516Z,15.13
2022-09-03T00:22:33.863Z,15.10
2022-09-03T00:23:07.816Z,15.09
2022-09-03T00:23:42.582Z,15.07
2022-09-03T00:24:17.466Z,15.09
2022-09-03T00:24:50.174Z,15.08
2022-09-03T00:26:14.847Z,15.17
2022-09-03T00:26:54.620Z,15.21
2022-09-03T00:27:27.294Z,15.18
2022-09-03T00:27:59.897Z,15.14
2022-09-03T00:28:38.889Z,15.11
2022-09-03T00:29:22.814Z,15.09
2022-09-03T00:29:59.833Z,15.09
2022-09-03T00:30:32.524Z,15.09
2022-09-03T00:31:38.360Z,15.05
2022-09-03T00:32:26.399Z,15.03
2022-09-03T00:33:06.910Z,15.05
2022-09-03T00:33:40.062Z,15.07
2022-09-03T00:34:32.696Z,15.04
2022-09-03T00:35:06.731Z,15.01
2022-09-03T00:35:50.618Z,15.06
2022-09-03T00:36:42.206Z,15.07
2022-09-03T00:37:15.586Z,15.03
2022-09-03T00:37:47.896Z,15.02
2022-09-03T00:38:22.229Z,14.99
2022-09-03T00:38:53.734Z,15.02
2022-09-03T00:39:26.677Z,14.97
2022-09-03T00:39:58.283Z,14.95
2022-09-03T00:40:48.231Z,15.00
2022-09-03T00:41:21.226Z,15.02
2022-09-03T00:42:21.540Z,15.06
2022-09-03T00:43:34.363Z,15.03
2022-09-03T00:44:05.859Z,15.12
2022-09-03T00:44:43.511Z,15.13
2022-09-03T00:45:33.765Z,15.13
2022-09-03T00:46:13.946Z,15.10
2022-09-03T00:46:51.343Z,15.10
2022-09-03T00:47:44.887Z,15.09
2022-09-03T00:48:28.388Z,15.02
2022-09-03T00:49:10.085Z,15.02
2022-09-03T00:50:09.277Z,15.05
2022-09-03T00:50:49.264Z,15.10
2022-09-03T00:51:40.550Z,15.04
2022-09-03T00:52:28.821Z,15.06
2022-09-03T00:53:23.828Z,14.99
2022-09-03T00:54:25.704Z,15.04
2022-09-03T00:55:05.900Z,15.01
2022-09-03T00:55:39.698Z,15.03
2022-09-03T00:56:30.025Z,15.01
2022-09-03T00:57:27.843Z,14.99
2022-09-03T00:58:09.254Z,15.01
2022-09-03T00:59:18.946Z,15.00
2022-09-03T01:00:12.158Z,14.97
2022-09-03T01:00:45.111Z,14.95
2022-09-03T01:01:33.841Z,14.97
2022-09-03T01:02:11.310Z,14.96
2022-09-03T01:03:07.922Z,14.92
2022-09-03T01:03:53.322Z,14.89
2022-09-03T01:04:54.554Z,14.89
2022-09-03T01:05:26.821Z,14.88
2022-09-03T01:06:22.063Z,14.87
2022-09-03T01:07:34.090Z,14.85
2022-09-03T01:08:05.539Z,14.87
2022-09-03T01:08:41.382Z,14.85
2022-09-03T01:09:24.093Z,14.81
2022-09-03T01:10:11.714Z,14.78
2022-09-03T01:11:01.577Z,14.79
2022-09-03T01:12:16.470Z,14.73
2022-09-03T01:12:56.952Z,14.75
2022-09-03T01:13:37.693Z,14.70
2022-09-03T01:14:37.900Z,14.72
2022-09-03T01:15:36.230Z,14.67
2022-09-03T01:16:13.798Z,14.62
2022-09-03T01:16:53.378Z,14.62
2022-09-03T01:17:42.400Z,14.59
2022-09-03T01:18:27.537Z,14.57
2022-09-03T01:19:37.775Z,14.57
2022-09-03T01:20:46.203Z,14.55
2022-09-03T01:21:34.801Z,14.52
2022-09-03T01:22:38.523Z,14.51
2022-09-03T01:23:37.235Z,14.55
2022-09-03T01:24:46.763Z,14.53
2022-09-03T01:25:44.032Z,14.51
2022-09-03T01:26:24.682Z,14.51
2022-09-03T01:27:11.111Z,14.59
2022-09-03T01:27:48.247Z,14.58
2022-09-03T01:28:25.668Z,14.65
2022-09-03T01:29:11.907Z,14.62
2022-09-03T01:30:00.654Z,14.58
2022-09-03T01:30:39.053Z,14.51
2022-09-03T01:31:47.231Z,14.46
2022-09-03T01:32:29.136Z,14.48
2022-09-03T01:33:20.886Z,14.56
2022-09-03T01:34:11.422Z,14.55
2022-09-03T01:34:53.853Z,14.56
2022-09-03T01:35:35.012Z,14.56
2022-09-03T01:36:24.551Z,14.51
2022-09-03T01:37:20.917Z,14.46
2022-09-03T01:38:17.569Z,14.41
2022-09-03T01:39:02.924Z,14.43
2022-09-03T01:39:55.731Z,14.39
2022-09-03T01:40:36.108Z,14.39
2022-09-03T01:41:47.882Z,14.39
2022-09-03T01:42:24.420Z,14.40
2022-09-03T01:43:15.845Z,14.40
2022-09-03T01:44:11.254Z,14.41
2022-09-03T01:45:08.874Z,14.44
2022-09-03T01:45:51.614Z,14.46
2022-09-03T01:46:26.452Z,14.41
2022-09-03T01:47:10.966Z,14.41
2022-09-03T01:48:07.883Z,14.47
2022-09-03T01:48:51.527Z,14.40
2022-09-03T01:49:38.493Z,14.46
2022-09-03T01:50:11.351Z,14.41
2022-09-03T01:50:48.360Z,14.41
2022-09-03T01:51:29.033Z,14.40
2022-09-03T01:52:13.745Z,14.40
2022-09-03T01:53:03.382Z,14.39
2022-09-03T01:53:53.044Z,14.42
2022-09-03T01:54:45.046Z,14.40
2022-09-03T01:55:44.160Z,14.37
2022-09-03T01:56:33.475Z,14.33
2022-09-03T01:57:35.886Z,14.33
2022-09-03T01:58:16.394Z,14.30
2022-09-03T01:59:07.925Z,14.25
2022-09-03T01:59:50.471Z,14.23
2022-09-03T02:00:22.739Z,14.21
2022-09-03T02:01:05.278Z,14.18
2022-09-03T02:01:46.695Z,14.19
2022-09-03T02:02:23.290Z,14.21
2022-09-03T02:02:55.036Z,14.17
2022-09-03T02:03:34.077Z,14.13
2022-09-03T02:04:15.740Z,14.10
2022-09-03T02:05:09.662Z,14.09
2022-09-03T02:05:43.879Z,14.07
2022-09-03T02:06:15.766Z,14.02
2022-09-03T02:06:48.915Z,14.01
2022-09-03T02:07:21.554Z,14.01
2022-09-03T02:07:55.734Z,13.99
2022-09-03T02:08:27.462Z,13.97
2022-09-03T02:08:58.981Z,13.98
2022-09-03T02:09:32.821Z,13.96
2022-09-03T02:10:07.746Z,13.98
2022-09-03T02:10:49.625Z,13.99
2022-09-03T02:11:21.126Z,13.97
2022-09-03T02:12:00.373Z,13.97
2022-09-03T02:12:33.734Z,13.93
2022-09-03T02:13:08.746Z,13.95
2022-09-03T02:13:46.179Z,13.94
2022-09-03T02:14:17.860Z,13.92
2022-09-03T02:14:49.342Z,13.88
2022-09-03T02:15:23.278Z,13.85
2022-09-03T02:15:58.573Z,13.83
2022-09-03T02:16:33.545Z,13.82
2022-09-03T02:17:05.680Z,13.82
2022-09-03T02:17:37.396Z,13.81
2022-09-03T02:18:19.757Z,13.78
2022-09-03T02:18:54.448Z,13.78
2022-09-03T02:19:27.551Z,13.78
2022-09-03T02:20:04.337Z,13.78
2022-09-03T02:20:37.203Z,13.75
2022-09-03T02:21:10.566Z,13.76
2022-09-03T02:21:51.221Z,13.75
2022-09-03T02:22:22.815Z,13.75
2022-09-03T02:22:55.115Z,13.74
2022-09-03T02:23:28.510Z,13.73
2022-09-03T02:24:00.903Z,13.72
2022-09-03T02:24:32.617Z,13.71
2022-09-03T02:25:04.472Z,13.70
2022-09-03T02:25:39.407Z,13.69
2022-09-03T02:26:12.406Z,13.67
2022-09-03T02:26:44.024Z,13.64
2022-09-03T02:27:16.089Z,13.60
2022-09-03T02:27:49.439Z,13.59
2022-09-03T02:28:21.007Z,13.58
2022-09-03T02:28:54.263Z,13.64
2022-09-03T02:29:26.156Z,13.66
2022-09-03T02:29:59.459Z,13.65
2022-09-03T02:30:30.977Z,13.65
2022-09-03T02:31:02.984Z,13.66
2022-09-03T02:31:34.534Z,13.60
2022-09-03T02:32:06.075Z,13.61
2022-09-03T02:32:37.982Z,13.56
2022-09-03T02:33:10.067Z,13.54
2022-09-03T02:33:44.719Z,13.53
2022-09-03T02:34:16.259Z,13.50
2022-09-03T02:34:47.875Z,13.50
2022-09-03T02:35:19.694Z,13.48
2022-09-03T02:35:52.030Z,13.47
2022-09-03T02:36:32.874Z,13.44
2022-09-03T02:37:13.679Z,13.42
2022-09-03T02:37:45.199Z,13.43
2022-09-03T02:38:19.891Z,13.42
2022-09-03T02:38:51.666Z,13.40
2022-09-03T02:39:23.242Z,13.38
2022-09-03T02:39:54.952Z,13.41
2022-09-03T02:40:26.605Z,13.42
2022-09-03T02:40:58.550Z,13.44
2022-09-03T02:41:30.961Z,13.44
2022-09-03T02:42:02.938Z,13.44
2022-09-03T02:42:34.868Z,13.44
2022-09-03T02:43:10.621Z,13.45
2022-09-03T02:43:48.138Z,13.43
2022-09-03T02:44:28.213Z,13.44
2022-09-03T02:45:14.199Z,13.49
2022-09-03T02:45:47.527Z,13.51
2022-09-03T02:46:28.248Z,13.48
2022-09-03T02:47:05.810Z,13.48
2022-09-03T02:47:38.746Z,13.51
2022-09-03T02:48:11.485Z,13.51
2022-09-03T02:48:43.090Z,13.54
2022-09-03T02:49:14.824Z,13.54
2022-09-03T02:49:49.714Z,13.53
2022-09-03T02:50:21.234Z,13.54
2022-09-03T02:50:52.926Z,13.55
2022-09-03T02:51:24.443Z,13.51
2022-09-03T02:52:05.918Z,13.49
2022-09-03T02:52:37.407Z,13.48
2022-09-03T02:53:09.501Z,13.46
2022-09-03T02:53:41.932Z,13.45
2022-09-03T02:54:16.710Z,13.43
2022-09-03T02:54:50.618Z,13.42
2022-09-03T02:55:22.398Z,13.39
2022-09-03T02:55:58.338Z,13.36
2022-09-03T02:56:29.906Z,13.35
2022-09-03T02:57:02.195Z,13.37
2022-09-03T02:57:33.807Z,13.36
2022-09-03T02:58:08.862Z,13.34
2022-09-03T02:58:40.947Z,13.35
2022-09-03T02:59:15.076Z,13.34
2022-09-03T02:59:46.937Z,13.29
2022-09-03T03:00:18.535Z,13.28
2022-09-03T03:00:51.227Z,13.28
2022-09-03T03:01:23.780Z,13.29
2022-09-03T03:01:55.851Z,13.25
2022-09-03T03:02:32.610Z,13.23
2022-09-03T03:03:05.536Z,13.22
2022-09-03T03:03:37.051Z,13.19
2022-09-03T03:04:08.569Z,13.16
2022-09-03T03:04:40.234Z,13.17
2022-09-03T03:05:15.867Z,13.15
2022-09-03T03:05:50.891Z,13.11
2022-09-03T03:06:22.773Z,13.10
2022-09-03T03:06:54.432Z,13.08
2022-09-03T03:07:26.772Z,13.05
2022-09-03T03:07:58.656Z,13.04
2022-09-03T03:08:32.237Z,13.03
2022-09-03T03:09:05.940Z,13.04
2022-09-03T03:09:37.757Z,13.02
2022-09-03T03:10:09.697Z,13.03
2022-09-03T03:10:45.004Z,13.07
2022-09-03T03:11:19.397Z,13.06
2022-09-03T03:11:51.331Z,13.06
2022-09-03T03:12:22.911Z,13.09
2022-09-03T03:12:54.662Z,13.05
2022-09-03T03:13:30.119Z,13.04
2022-09-03T03:14:01.655Z,13.03
2022-09-03T03:14:33.167Z,13.00
2022-09-03T03:15:05.179Z,13.00
2022-09-03T03:15:36.784Z,13.02
2022-09-03T03:16:08.459Z,13.02
2022-09-03T03:16:39.994Z,13.02
2022-09-03T03:17:11.540Z,13.06
2022-09-03T03:17:43.070Z,12.94
2022-09-03T03:18:15.222Z,12.92
2022-09-03T03:18:46.783Z,12.92
2022-09-03T03:19:18.390Z,12.94
2022-09-03T03:19:49.904Z,12.95
2022-09-03T03:20:21.573Z,12.98
2022-09-03T03:20:53.123Z,12.98
2022-09-03T03:21:25.087Z,12.97
2022-09-03T03:21:56.878Z,12.92
2022-09-03T03:22:28.394Z,12.88
2022-09-03T03:23:04.698Z,12.88
2022-09-03T03:23:36.800Z,12.89
2022-09-03T03:24:08.634Z,12.86
2022-09-03T03:24:40.855Z,12.87
2022-09-03T03:25:12.850Z,12.85
2022-09-03T03:25:44.420Z,12.82
2022-09-03T03:26:21.075Z,12.81
2022-09-03T03:26:58.053Z,12.81
2022-09-03T03:27:29.600Z,12.83
2022-09-03T03:28:01.234Z,12.83
2022-09-03T03:28:33.974Z,12.85
2022-09-03T03:29:05.459Z,12.81
2022-09-03T03:29:37.322Z,12.81
2022-09-03T03:30:10.599Z,12.81
2022-09-03T03:30:42.834Z,12.80
2022-09-03T03:31:17.943Z,12.80
2022-09-03T03:31:49.483Z,12.81
2022-09-03T03:32:21.001Z,12.85
2022-09-03T03:32:54.220Z,12.85
2022-09-03T03:33:25.912Z,12.84
2022-09-03T03:33:59.456Z,12.84
2022-09-03T03:34:31.080Z,12.85
2022-09-03T03:35:03.479Z,12.84
2022-09-03T03:35:35.717Z,12.83
2022-09-03T03:36:09.816Z,12.83
2022-09-03T03:36:41.520Z,12.82
2022-09-03T03:37:13.103Z,12.80
2022-09-03T03:37:44.634Z,12.79
2022-09-03T03:38:16.137Z,12.83
2022-09-03T03:38:47.770Z,12.82
2022-09-03T03:39:20.283Z,12.82
2022-09-03T03:39:52.171Z,12.81
2022-09-03T03:40:23.730Z,12.86
2022-09-03T03:40:55.222Z,12.86
2022-09-03T03:41:31.302Z,12.84
2022-09-03T03:42:02.955Z,12.86
2022-09-03T03:42:34.956Z,12.93
2022-09-03T03:43:06.491Z,12.97
2022-09-03T03:43:38.039Z,13.02
2022-09-03T03:44:09.573Z,13.01
2022-09-03T03:44:42.396Z,13.00
2022-09-03T03:45:14.189Z,12.98
2022-09-03T03:45:56.676Z,12.93
2022-09-03T03:46:33.741Z,12.91
2022-09-03T03:47:06.100Z,12.91
2022-09-03T03:47:38.018Z,12.92
2022-09-03T03:48:09.486Z,12.90
2022-09-03T03:48:41.379Z,12.88
2022-09-03T03:49:13.939Z,12.87
2022-09-03T03:49:45.495Z,12.87
2022-09-03T03:50:17.195Z,12.86
2022-09-03T03:50:49.147Z,12.86
2022-09-03T03:51:20.687Z,12.86
2022-09-03T03:51:52.252Z,12.84
2022-09-03T03:52:25.361Z,12.83
2022-09-03T03:53:00.690Z,12.87
2022-09-03T03:53:34.976Z,12.88
2022-09-03T03:54:07.068Z,12.87
2022-09-03T03:54:38.618Z,12.87
2022-09-03T03:55:10.109Z,12.85
2022-09-03T03:55:42.141Z,12.83
2022-09-03T03:56:15.244Z,12.81
2022-09-03T03:56:55.344Z,12.81
2022-09-03T03:57:30.953Z,12.82
2022-09-03T03:58:02.571Z,12.79
2022-09-03T03:58:34.132Z,12.77
2022-09-03T03:59:05.710Z,12.75
2022-09-03T03:59:37.332Z,12.74
2022-09-03T04:00:09.475Z,12.71
2022-09-03T04:00:48.026Z,12.67
2022-09-03T04:01:21.863Z,12.63
2022-09-03T04:01:56.411Z,12.61
2022-09-03T04:02:27.995Z,12.58
2022-09-03T04:02:59.672Z,12.56
2022-09-03T04:03:31.219Z,12.53
2022-09-03T04:04:03.178Z,12.49
2022-09-03T04:04:34.759Z,12.47
2022-09-03T04:05:06.545Z,12.44
2022-09-03T04:05:46.113Z,12.42
2022-09-03T04:06:20.541Z,12.42
2022-09-03T04:06:52.382Z,12.38
2022-09-03T04:07:23.931Z,12.37
2022-09-03T04:07:55.607Z,12.38
2022-09-03T04:08:27.870Z,12.40
2022-09-03T04:08:59.365Z,12.36
2022-09-03T04:09:30.903Z,12.38
2022-09-03T04:10:02.426Z,12.38
2022-09-03T04:10:34.472Z,12.40
2022-09-03T04:11:09.659Z,12.41
2022-09-03T04:11:41.151Z,12.41
2022-09-03T04:12:12.662Z,12.41
2022-09-03T04:12:44.175Z,12.41
2022-09-03T04:13:15.756Z,12.38
2022-09-03T04:13:48.298Z,12.44
2022-09-03T04:14:19.771Z,12.47
2022-09-03T04:14:51.263Z,12.49
2022-09-03T04:15:22.738Z,12.48
2022-09-03T04:16:03.928Z,12.49
2022-09-03T04:16:35.729Z,12.51
2022-09-03T04:17:07.482Z,12.51
2022-09-03T04:17:39.790Z,12.48
2022-09-03T04:18:11.784Z,12.49
2022-09-03T04:18:43.290Z,12.49
2022-09-03T04:19:14.787Z,12.52
2022-09-03T04:19:48.139Z,12.50
2022-09-03T04:20:19.633Z,12.55
2022-09-03T04:20:51.197Z,12.52
2022-09-03T04:21:30.498Z,12.50
2022-09-03T04:22:03.170Z,12.48
2022-09-03T04:22:34.791Z,12.47
2022-09-03T04:23:07.029Z,12.44
2022-09-03T04:23:41.113Z,12.46
2022-09-03T04:24:12.643Z,12.43
2022-09-03T04:24:44.341Z,12.43
2022-09-03T04:25:15.911Z,12.40
2022-09-03T04:25:52.966Z,12.37
2022-09-03T04:26:31.382Z,12.33
2022-09-03T04:27:03.119Z,12.29
2022-09-03T04:27:34.830Z,12.30
2022-09-03T04:28:06.307Z,12.29
2022-09-03T04:28:38.174Z,12.27
2022-09-03T04:29:10.380Z,12.26
2022-09-03T04:29:41.911Z,12.14
2022-09-03T04:30:13.597Z,12.13
2022-09-03T04:30:45.132Z,12.11
2022-09-03T04:31:21.869Z,12.09
2022-09-03T04:32:28.787Z,12.07
2022-09-03T04:33:00.486Z,12.06
2022-09-03T04:33:33.026Z,12.04
2022-09-03T04:34:07.775Z,12.05
2022-09-03T04:34:40.266Z,12.01
2022-09-03T04:35:11.773Z,12.04
2022-09-03T04:35:44.380Z,12.02
2022-09-03T04:36:27.058Z,12.04
2022-09-03T04:36:59.185Z,12.03
2022-09-03T04:37:30.860Z,11.96
2022-09-03T04:38:04.244Z,11.97
2022-09-03T04:38:37.982Z,12.01
2022-09-03T04:39:09.476Z,12.05
2022-09-03T04:39:40.997Z,12.06
2022-09-03T04:40:12.678Z,12.28
2022-09-03T04:40:52.459Z,12.17
2022-09-03T04:41:27.268Z,12.22
2022-09-03T04:42:00.092Z,12.10
2022-09-03T04:42:31.722Z,12.12
2022-09-03T04:43:03.909Z,12.10
2022-09-03T04:43:35.880Z,12.09
2022-09-03T04:44:07.865Z,12.07
2022-09-03T04:44:41.068Z,12.06
2022-09-03T04:45:15.843Z,12.06
2022-09-03T04:45:47.341Z,12.04
2022-09-03T04:46:20.209Z,12.02
2022-09-03T04:46:53.264Z,12.03
2022-09-03T04:47:24.827Z,12.01
2022-09-03T04:48:03.877Z,12.01
2022-09-03T04:48:37.741Z,12.02
2022-09-03T04:49:10.303Z,12.01
2022-09-03T04:49:41.836Z,12.01
2022-09-03T04:50:13.772Z,12.02
2022-09-03T04:50:45.292Z,12.03
2022-09-03T04:51:19.583Z,12.01
2022-09-03T04:51:51.221Z,12.07
2022-09-03T04:52:22.958Z,12.04
2022-09-03T04:53:08.116Z,12.06
2022-09-03T04:53:41.866Z,12.07
2022-09-03T04:54:13.523Z,12.07
2022-09-03T04:54:45.034Z,12.06
2022-09-03T04:55:16.987Z,12.05
2022-09-03T04:55:48.503Z,12.05
2022-09-03T04:56:25.758Z,12.08
2022-09-03T04:56:57.340Z,12.09
2022-09-03T04:57:34.363Z,12.10
2022-09-03T04:58:08.047Z,12.10
2022-09-03T04:58:39.886Z,12.12
2022-09-03T04:59:14.762Z,12.15
2022-09-03T04:59:46.262Z,12.15
2022-09-03T05:00:18.776Z,12.15
2022-09-03T05:00:50.733Z,12.18
2022-09-03T05:01:24.623Z,12.16
2022-09-03T05:01:56.886Z,12.14
2022-09-03T05:02:28.521Z,12.16
2022-09-03T05:03:05.147Z,12.17
2022-09-03T05:03:37.611Z,12.17
2022-09-03T05:04:09.558Z,12.19
2022-09-03T05:04:41.932Z,12.23
2022-09-03T05:05:13.672Z,12.22
2022-09-03T05:05:57.849Z,12.25
2022-09-03T05:06:30.923Z,12.26
2022-09-03T05:07:02.541Z,12.28
2022-09-03T05:07:38.655Z,12.29
2022-09-03T05:08:11.191Z,12.29
2022-09-03T05:08:43.993Z,12.31
2022-09-03T05:09:15.587Z,12.32
2022-09-03T05:09:47.263Z,12.32
2022-09-03T05:10:22.552Z,12.33
2022-09-03T05:11:00.483Z,12.33
2022-09-03T05:11:32.157Z,12.35
2022-09-03T05:12:03.956Z,12.37
2022-09-03T05:12:36.053Z,12.37
2022-09-03T05:13:07.950Z,12.39
2022-09-03T05:13:40.099Z,12.39
2022-09-03T05:14:12.746Z,12.40
2022-09-03T05:14:44.283Z,12.42
2022-09-03T05:15:16.142Z,12.39
2022-09-03T05:15:47.628Z,12.39
2022-09-03T05:16:19.826Z,12.41
2022-09-03T05:16:52.673Z,12.44
2022-09-03T05:17:24.547Z,12.45
2022-09-03T05:17:57.884Z,12.46
2022-09-03T05:18:29.842Z,12.47
2022-09-03T05:19:01.616Z,12.47
2022-09-03T05:19:34.498Z,12.45
2022-09-03T05:20:10.144Z,12.46
2022-09-03T05:20:41.630Z,12.44
2022-09-03T05:21:15.789Z,12.46
2022-09-03T05:21:47.340Z,12.47
2022-09-03T05:22:21.370Z,12.46
2022-09-03T05:22:53.031Z,12.48
2022-09-03T05:23:24.958Z,12.49
2022-09-03T05:23:56.662Z,12.50
2022-09-03T05:24:28.180Z,12.52
2022-09-03T05:24:59.683Z,12.55
2022-09-03T05:25:34.645Z,12.56
2022-09-03T05:26:10.982Z,12.57
2022-09-03T05:26:42.790Z,12.57
2022-09-03T05:27:16.897Z,12.58
2022-09-03T05:27:48.759Z,12.58
2022-09-03T05:28:20.312Z,12.58
2022-09-03T05:28:56.290Z,12.61
2022-09-03T05:29:27.767Z,12.62
2022-09-03T05:29:59.467Z,12.65
2022-09-03T05:30:30.968Z,12.64
2022-09-03T05:31:13.808Z,12.67
2022-09-03T05:31:45.470Z,12.69
2022-09-03T05:32:17.356Z,12.66
2022-09-03T05:32:49.209Z,12.66
2022-09-03T05:33:23.803Z,12.67
2022-09-03T05:33:58.621Z,12.67
2022-09-03T05:34:30.171Z,12.69
2022-09-03T05:35:01.678Z,12.69
2022-09-03T05:35:33.167Z,12.71
2022-09-03T05:36:06.737Z,12.71
2022-09-03T05:36:38.542Z,12.75
2022-09-03T05:37:10.415Z,12.74
2022-09-03T05:37:41.915Z,12.76
2022-09-03T05:38:14.373Z,12.77
2022-09-03T05:38:47.290Z,12.78
2022-09-03T05:39:18.859Z,12.80
2022-09-03T05:39:51.139Z,12.83
2022-09-03T05:40:22.818Z,12.86
2022-09-03T05:40:54.303Z,12.86
2022-09-03T05:41:27.090Z,12.86
2022-09-03T05:41:58.634Z,12.89
2022-09-03T05:42:31.207Z,12.91
2022-09-03T05:43:07.877Z,12.93
2022-09-03T05:43:40.629Z,12.95
2022-09-03T05:44:12.220Z,12.95
2022-09-03T05:44:44.109Z,12.98
2022-09-03T05:45:15.661Z,12.98
2022-09-03T05:45:47.461Z,13.02
2022-09-03T05:46:19.343Z,13.03
2022-09-03T05:46:51.711Z,13.04
2022-09-03T05:47:23.195Z,13.06
2022-09-03T05:47:54.800Z,13.08
2022-09-03T05:48:27.533Z,13.09
2022-09-03T05:49:00.626Z,13.15
2022-09-03T05:49:32.198Z,13.21
2022-09-03T05:50:03.900Z,13.30
2022-09-03T05:50:35.579Z,13.33
2022-09-03T05:51:16.373Z,13.33
2022-09-03T05:51:47.938Z,13.35
2022-09-03T05:52:23.442Z,13.36
2022-09-03T05:52:54.973Z,13.41
2022-09-03T05:53:27.807Z,13.41
2022-09-03T05:54:02.958Z,13.43
2022-09-03T05:54:34.440Z,13.45
2022-09-03T05:55:06.967Z,13.51
2022-09-03T05:55:40.279Z,13.57
2022-09-03T05:56:18.060Z,13.65
2022-09-03T05:56:49.912Z,13.66
2022-09-03T05:57:21.639Z,13.66
2022-09-03T05:57:53.161Z,13.69
2022-09-03T05:58:25.373Z,13.68
2022-09-03T05:59:03.152Z,13.67
2022-09-03T05:59:34.653Z,13.69
2022-09-03T06:00:06.802Z,13.69
2022-09-03T06:00:43.559Z,13.70
2022-09-03T06:01:24.980Z,13.69
2022-09-03T06:02:00.040Z,13.70
2022-09-03T06:02:32.648Z,13.72
2022-09-03T06:03:04.664Z,13.73
2022-09-03T06:03:37.256Z,13.74
2022-09-03T06:04:13.603Z,13.73
2022-09-03T06:04:45.258Z,13.72
2022-09-03T06:05:17.026Z,13.72
2022-09-03T06:05:52.248Z,13.76
2022-09-03T06:06:27.438Z,13.84
2022-09-03T06:06:58.917Z,14.10
2022-09-03T06:07:30.445Z,14.54
2022-09-03T06:08:02.194Z,15.02
2022-09-03T06:08:34.416Z,15.26
2022-09-03T06:09:08.186Z,15.30
2022-09-03T06:09:39.739Z,15.37
2022-09-03T06:10:12.639Z,15.49
2022-09-03T06:10:45.062Z,15.63
2022-09-03T06:11:16.655Z,15.91
2022-09-03T06:11:50.207Z,16.27
2022-09-03T06:12:21.936Z,16.62
2022-09-03T06:12:53.479Z,16.82
2022-09-03T06:13:25.461Z,16.99
2022-09-03T06:13:58.046Z,17.34
2022-09-03T06:14:29.822Z,17.73
2022-09-03T06:15:01.312Z,18.05
2022-09-03T06:15:32.898Z,18.25
2022-09-03T06:16:07.177Z,18.37
2022-09-03T06:16:41.338Z,18.36
2022-09-03T06:17:12.943Z,18.28
2022-09-03T06:17:44.439Z,18.57
2022-09-03T06:18:16.001Z,18.75
2022-09-03T06:18:47.725Z,19.04
2022-09-03T06:19:19.500Z,19.27
2022-09-03T06:19:51.039Z,19.36
2022-09-03T06:20:29.097Z,19.57
2022-09-03T06:21:02.354Z,19.55
2022-09-03T06:21:34.056Z,19.53
2022-09-03T06:22:05.584Z,19.69
2022-09-03T06:22:37.168Z,19.98
2022-09-03T06:23:08.862Z,20.12
2022-09-03T06:23:45.734Z,20.23
2022-09-03T06:24:20.583Z,20.40
2022-09-03T06:24:52.580Z,19.93
2022-09-03T06:25:24.816Z,19.79
2022-09-03T06:26:14.139Z,19.83
2022-09-03T06:26:46.607Z,20.47
2022-09-03T06:27:20.602Z,20.88
2022-09-03T06:27:53.245Z,20.99
2022-09-03T06:28:26.743Z,20.64
2022-09-03T06:28:59.873Z,20.99
2022-09-03T06:29:31.422Z,21.37
2022-09-03T06:30:03.214Z,21.41
2022-09-03T06:30:35.976Z,21.49
2022-09-03T06:31:09.980Z,21.22
2022-09-03T06:31:41.676Z,20.73
2022-09-03T06:32:14.022Z,21.28
2022-09-03T06:32:46.508Z,21.62
2022-09-03T06:33:18.718Z,21.51
2022-09-03T06:33:50.305Z,21.53
2022-09-03T06:34:22.747Z,21.67
2022-09-03T06:34:54.706Z,21.71
2022-09-03T06:35:26.188Z,22.03
2022-09-03T06:35:59.602Z,21.69
2022-09-03T06:36:31.153Z,21.77
2022-09-03T06:37:02.686Z,22.06
2022-09-03T06:37:40.150Z,21.78
2022-09-03T06:38:12.737Z,21.81
2022-09-03T06:38:46.226Z,21.18
2022-09-03T06:39:17.831Z,20.85
2022-09-03T06:39:50.595Z,21.23
2022-09-03T06:40:23.562Z,21.23
2022-09-03T06:41:02.004Z,21.37
2022-09-03T06:41:35.511Z,21.48
2022-09-03T06:42:08.614Z,21.90
2022-09-03T06:42:46.119Z,21.44
2022-09-03T06:43:18.319Z,21.45
2022-09-03T06:43:50.415Z,21.79
2022-09-03T06:44:21.964Z,22.19
2022-09-03T06:44:53.454Z,21.90
2022-09-03T06:45:25.141Z,21.93
2022-09-03T06:46:02.668Z,21.81
2022-09-03T06:46:35.729Z,22.02
2022-09-03T06:47:07.271Z,21.54
2022-09-03T06:47:38.858Z,21.61
2022-09-03T06:48:10.399Z,21.64
2022-09-03T06:48:42.561Z,22.05
2022-09-03T06:49:17.607Z,21.85
2022-09-03T06:49:49.301Z,21.37
2022-09-03T06:50:21.555Z,21.67
2022-09-03T06:50:54.839Z,21.87
2022-09-03T06:51:28.171Z,21.52
2022-09-03T06:51:59.930Z,21.34
2022-09-03T06:52:31.411Z,21.07
2022-09-03T06:53:02.894Z,20.96
2022-09-03T06:53:39.045Z,20.94
2022-09-03T06:54:11.933Z,21.11
2022-09-03T06:54:43.413Z,21.25
2022-09-03T06:55:14.991Z,21.27
2022-09-03T06:55:53.815Z,21.49
2022-09-03T06:56:28.200Z,21.46
2022-09-03T06:56:59.886Z,21.45
2022-09-03T06:57:31.468Z,21.53
2022-09-03T06:58:02.972Z,21.51
2022-09-03T06:58:40.537Z,21.55
2022-09-03T06:59:14.370Z,21.70
2022-09-03T06:59:45.959Z,21.80
2022-09-03T07:00:17.543Z,21.93
2022-09-03T07:00:49.812Z,22.00
2022-09-03T07:01:24.068Z,21.86
2022-09-03T07:01:55.862Z,21.55
2022-09-03T07:02:27.670Z,21.97
2022-09-03T07:02:59.772Z,21.96
2022-09-03T07:03:31.348Z,21.98
2022-09-03T07:04:04.866Z,22.39
2022-09-03T07:04:36.485Z,22.68
2022-09-03T07:05:09.164Z,22.63
2022-09-03T07:05:40.789Z,22.30
2022-09-03T07:06:14.487Z,22.34
2022-09-03T07:06:46.472Z,22.38
2022-09-03T07:07:18.595Z,22.18
2022-09-03T07:07:50.542Z,22.23
2022-09-03T07:08:22.785Z,22.28
2022-09-03T07:08:54.843Z,22.67
2022-09-03T07:09:27.038Z,22.61
2022-09-03T07:09:58.544Z,22.94
2022-09-03T07:10:30.144Z,23.09
2022-09-03T07:11:09.395Z,23.36
2022-09-03T07:11:47.204Z,23.32
2022-09-03T07:12:19.406Z,22.91
2022-09-03T07:12:50.887Z,22.84
2022-09-03T07:13:22.413Z,22.56
2022-09-03T07:13:55.838Z,22.98
2022-09-03T07:14:28.418Z,23.11
2022-09-03T07:14:59.919Z,23.64
2022-09-03T07:15:33.314Z,23.69
2022-09-03T07:16:07.301Z,23.04
2022-09-03T07:16:38.866Z,23.19
2022-09-03T07:17:10.396Z,22.99
2022-09-03T07:17:41.879Z,22.97
2022-09-03T07:18:13.372Z,22.96
2022-09-03T07:18:45.636Z,23.04
2022-09-03T07:19:17.710Z,23.54
2022-09-03T07:19:49.370Z,23.50
2022-09-03T07:20:21.085Z,23.39
2022-09-03T07:20:52.591Z,22.93
2022-09-03T07:21:26.458Z,23.15
2022-09-03T07:21:58.045Z,22.88
2022-09-03T07:22:31.605Z,22.74
2022-09-03T07:23:03.346Z,22.67
2022-09-03T07:23:36.079Z,22.67
2022-09-03T07:24:08.600Z,22.92
2022-09-03T07:24:40.255Z,22.96
2022-09-03T07:25:11.826Z,23.16
2022-09-03T07:25:43.953Z,22.94
2022-09-03T07:26:19.087Z,23.55
2022-09-03T07:26:50.619Z,23.84
2022-09-03T07:27:22.187Z,23.99
2022-09-03T07:27:53.660Z,23.94
2022-09-03T07:28:27.786Z,23.64
2022-09-03T07:29:00.851Z,23.16
2022-09-03T07:29:32.355Z,23.08
2022-09-03T07:30:04.263Z,23.32
2022-09-03T07:30:35.803Z,23.33
2022-09-03T07:31:22.698Z,22.70
2022-09-03T07:31:54.419Z,22.60
2022-09-03T07:32:25.947Z,22.66
2022-09-03T07:33:01.741Z,22.72
2022-09-03T07:33:34.227Z,22.92
2022-09-03T07:34:10.821Z,22.57
2022-09-03T07:34:42.327Z,22.45
2022-09-03T07:35:13.918Z,22.33
2022-09-03T07:35:46.316Z,22.59
2022-09-03T07:36:18.131Z,22.78
2022-09-03T07:36:51.402Z,22.60
2022-09-03T07:37:23.471Z,22.55
2022-09-03T07:37:55.260Z,22.50
2022-09-03T07:38:26.776Z,22.92
2022-09-03T07:38:59.131Z,22.93
2022-09-03T07:39:30.670Z,22.58
2022-09-03T07:40:02.672Z,23.17